sensor_id;sensor_type;location;lat;lon;timestamp;P1;durP1;ratioP1;P2;durP2;ratioP2
49556;SDS011;35462;45.048;7.666;2023-04-03T00:07:17;6.07;;;1.50;;
49556;SDS011;35462;45.048;7.666;2023-04-03T00:22:21;1.90;;;1.20;;
49556;SDS011;35462;45.048;7.666;2023-04-03T00:37:24;1.58;;;1.02;;
49556;SDS011;35462;45.048;7.666;2023-04-03T00:52:29;2.53;;;1.30;;
49556;SDS011;35462;45.048;7.666;2023-04-03T01:07:34;2.35;;;1.35;;
49556;SDS011;35462;45.048;7.666;2023-04-03T01:37:50;2.70;;;1.70;;
49556;SDS011;35462;45.048;7.666;2023-04-03T01:52:54;2.80;;;1.30;;
49556;SDS011;35462;45.048;7.666;2023-04-03T02:07:59;3.15;;;1.27;;
49556;SDS011;35462;45.048;7.666;2023-04-03T02:23:03;4.03;;;1.00;;
49556;SDS011;35462;45.048;7.666;2023-04-03T02:38:07;1.88;;;0.80;;
49556;SDS011;35462;45.048;7.666;2023-04-03T02:53:11;2.55;;;1.02;;
49556;SDS011;35462;45.048;7.666;2023-04-03T03:08:15;1.77;;;0.90;;
49556;SDS011;35462;45.048;7.666;2023-04-03T03:23:19;1.98;;;1.08;;
49556;SDS011;35462;45.048;7.666;2023-04-03T03:38:23;1.08;;;0.80;;
49556;SDS011;35462;45.048;7.666;2023-04-03T03:53:27;1.58;;;0.85;;
49556;SDS011;35462;45.048;7.666;2023-04-03T04:08:35;4.30;;;0.60;;
49556;SDS011;35462;45.048;7.666;2023-04-03T04:23:42;2.03;;;0.70;;
49556;SDS011;35462;45.048;7.666;2023-04-03T04:38:46;1.63;;;0.60;;
49556;SDS011;35462;45.048;7.666;2023-04-03T04:53:50;3.83;;;0.50;;
49556;SDS011;35462;45.048;7.666;2023-04-03T05:08:56;2.63;;;0.75;;
49556;SDS011;35462;45.048;7.666;2023-04-03T05:24:00;3.28;;;0.95;;
49556;SDS011;35462;45.048;7.666;2023-04-03T05:39:09;3.73;;;1.23;;
49556;SDS011;35462;45.048;7.666;2023-04-03T06:09:28;9.57;;;5.32;;
49556;SDS011;35462;45.048;7.666;2023-04-03T06:24:33;10.10;;;2.33;;
49556;SDS011;35462;45.048;7.666;2023-04-03T06:39:37;8.35;;;2.85;;
49556;SDS011;35462;45.048;7.666;2023-04-03T06:54:47;4.15;;;2.15;;
49556;SDS011;35462;45.048;7.666;2023-04-03T07:09:51;7.88;;;2.10;;
49556;SDS011;35462;45.048;7.666;2023-04-03T07:24:55;4.65;;;1.63;;
49556;SDS011;35462;45.048;7.666;2023-04-03T07:39:59;8.68;;;1.50;;
49556;SDS011;35462;45.048;7.666;2023-04-03T07:55:06;5.47;;;2.63;;
49556;SDS011;35462;45.048;7.666;2023-04-03T08:10:11;4.07;;;1.80;;
49556;SDS011;35462;45.048;7.666;2023-04-03T08:25:15;5.03;;;1.73;;
49556;SDS011;35462;45.048;7.666;2023-04-03T08:40:20;4.97;;;1.20;;
49556;SDS011;35462;45.048;7.666;2023-04-03T09:10:30;4.60;;;1.45;;
49556;SDS011;35462;45.048;7.666;2023-04-03T09:25:40;3.92;;;1.83;;
49556;SDS011;35462;45.048;7.666;2023-04-03T09:40:45;2.73;;;0.77;;
49556;SDS011;35462;45.048;7.666;2023-04-03T09:55:54;0.80;;;0.50;;
49556;SDS011;35462;45.048;7.666;2023-04-03T10:41:22;0.85;;;0.28;;
49556;SDS011;35462;45.048;7.666;2023-04-03T11:11:43;0.52;;;0.30;;
49556;SDS011;35462;45.048;7.666;2023-04-03T11:26:48;0.10;;;0.03;;
49556;SDS011;35462;45.048;7.666;2023-04-03T11:41:53;0.47;;;0.10;;
49556;SDS011;35462;45.048;7.666;2023-04-03T11:56:59;2.60;;;0.10;;
49556;SDS011;35462;45.048;7.666;2023-04-03T12:12:21;0.15;;;0.00;;
49556;SDS011;35462;45.048;7.666;2023-04-03T12:42:38;1.00;;;0.10;;
49556;SDS011;35462;45.048;7.666;2023-04-03T12:57:47;2.25;;;0.20;;
49556;SDS011;35462;45.048;7.666;2023-04-03T13:12:52;1.15;;;0.10;;
49556;SDS011;35462;45.048;7.666;2023-04-03T13:28:01;0.63;;;0.20;;
49556;SDS011;35462;45.048;7.666;2023-04-03T13:43:17;1.15;;;0.10;;
49556;SDS011;35462;45.048;7.666;2023-04-03T13:58:27;1.58;;;0.65;;
49556;SDS011;35462;45.048;7.666;2023-04-03T14:13:32;0.65;;;0.10;;
49556;SDS011;35462;45.048;7.666;2023-04-03T14:28:38;2.25;;;0.77;;
49556;SDS011;35462;45.048;7.666;2023-04-03T14:58:49;2.30;;;0.95;;
49556;SDS011;35462;45.048;7.666;2023-04-03T15:13:55;5.03;;;1.00;;
49556;SDS011;35462;45.048;7.666;2023-04-03T15:28:59;3.05;;;1.60;;
49556;SDS011;35462;45.048;7.666;2023-04-03T15:44:03;3.42;;;0.93;;
49556;SDS011;35462;45.048;7.666;2023-04-03T15:59:08;4.65;;;1.52;;
49556;SDS011;35462;45.048;7.666;2023-04-03T16:14:13;6.72;;;0.50;;
49556;SDS011;35462;45.048;7.666;2023-04-03T16:29:17;4.13;;;0.55;;
49556;SDS011;35462;45.048;7.666;2023-04-03T16:44:21;7.13;;;0.70;;
49556;SDS011;35462;45.048;7.666;2023-04-03T16:59:25;1.42;;;0.20;;
49556;SDS011;35462;45.048;7.666;2023-04-03T17:14:29;2.53;;;0.55;;
49556;SDS011;35462;45.048;7.666;2023-04-03T17:29:33;0.60;;;0.20;;
49556;SDS011;35462;45.048;7.666;2023-04-03T17:44:38;0.93;;;0.30;;
49556;SDS011;35462;45.048;7.666;2023-04-03T17:59:43;3.30;;;1.00;;
49556;SDS011;35462;45.048;7.666;2023-04-03T18:14:47;0.85;;;0.55;;
49556;SDS011;35462;45.048;7.666;2023-04-03T18:29:53;1.10;;;0.80;;
49556;SDS011;35462;45.048;7.666;2023-04-03T18:45:01;1.85;;;0.70;;
49556;SDS011;35462;45.048;7.666;2023-04-03T19:00:08;0.52;;;0.25;;
49556;SDS011;35462;45.048;7.666;2023-04-03T19:15:13;0.88;;;0.70;;
49556;SDS011;35462;45.048;7.666;2023-04-03T19:30:17;0.88;;;0.30;;
49556;SDS011;35462;45.048;7.666;2023-04-03T19:45:22;1.75;;;0.32;;
49556;SDS011;35462;45.048;7.666;2023-04-03T20:00:26;2.50;;;1.40;;
49556;SDS011;35462;45.048;7.666;2023-04-03T20:15:31;0.55;;;0.40;;
49556;SDS011;35462;45.048;7.666;2023-04-03T20:45:50;5.80;;;2.33;;
49556;SDS011;35462;45.048;7.666;2023-04-03T21:00:55;5.72;;;2.00;;
49556;SDS011;35462;45.048;7.666;2023-04-03T21:31:04;4.63;;;2.35;;
49556;SDS011;35462;45.048;7.666;2023-04-03T21:46:08;5.22;;;1.60;;
49556;SDS011;35462;45.048;7.666;2023-04-03T22:01:12;2.90;;;1.35;;
49556;SDS011;35462;45.048;7.666;2023-04-03T22:16:16;1.88;;;0.98;;
49556;SDS011;35462;45.048;7.666;2023-04-03T22:31:20;2.17;;;1.42;;
49556;SDS011;35462;45.048;7.666;2023-04-03T22:46:25;5.57;;;1.48;;
49556;SDS011;35462;45.048;7.666;2023-04-03T23:01:28;4.55;;;1.88;;
49556;SDS011;35462;45.048;7.666;2023-04-03T23:16:32;4.97;;;1.23;;
49556;SDS011;35462;45.048;7.666;2023-04-03T23:31:36;1.88;;;1.10;;
49556;SDS011;35462;45.048;7.666;2023-04-03T23:46:40;4.10;;;1.10;;
